Aérodrome :
LOGIN :

S'inscrire | Disclaimer

   EN    FR    IT 

 










Légende :    VFR   VFR Marginal   IFR   IFR Intensif   IFR Très Intensif
Visi : 
Plafond : 
>= 8 km
>= 3000ft
5 à 8 km
1000 à 3000 ft
1500m à 5 km
500 à 1000 ft
800 à 1500m
200 à 500 ft
< 800m
< 200 ft
Symboles :   Orages  Brouillard  Fortes neiges  Fortes précipitations  Vent > 20 kt
SIGMETs :   Divers  Orages  Givrage  Turbulence  Onde Orograph.  Cendres Volcan.







- Altitude de l'aérodrome : 1411 ft
- Code IATA : SZG


LOWS - Salzburg

DERNIER METAR :
  • 141450Z 28005KT 9999 FEW035 SCT055 BKN095 22/13 Q1016 NOSIG

METARs EXPIRÉS :
  • 141420Z 30010KT 9999 FEW030 SCT050 BKN090 22/13 Q1016 NOSIG
  • 141350Z 31010KT 9999 FEW030 SCT050 BKN090 23/15 Q1016 NOSIG
  • 141320Z 28007KT 230V340 9999 FEW028 BKN050 BKN090 22/14 Q1016 TEMPO SHRA
  • 141250Z 24005KT 170V320 9999 FEW028 SCT050 BKN090 22/15 Q1016 TEMPO SHRA
  • 141220Z 27006KT 9999 FEW028 BKN090 22/15 Q1016 TEMPO SHRA

TAF TAF LOWS
Valide du 14 à 12h jusqu'au 15 à 12h UTC


141115Z 1412/1512 29006KT 9999 SCT035 BKN060 TX23/1512Z TN16/1504Z
TEMPO 1412/1418 -SHRA
PROB40
TEMPO 1412/1418 29012KT 4000 SHRA FEW030CB BKN045
BECMG 1416/1418 15005KT SCT060 BKN100
TEMPO 1502/1509 -SHRA BKN060
BECMG 1507/1509 29006KT
Pas de NOTAMs connus pour ce terrain.



MET'MAP, la Météo Aéronautique d'un coup d'oeil ! - Copyright ORBIFLY Décembre 2007 - Disclaimer

ORBIFLY MET'MAP TEAM :

Programmation & Développement : Alexandra Zaïnal
Conception & Développement : Baudouin d'Aumeries
Co-Programmation & Développement : Marc-Olivier Méhu
Soutien technique & logistique : Manuel Goepfert

Contact : metmap@orbifly.com




SOURCES & CREDITS :

   NOAA